1221-й км

Карта отелей и гостиниц, располагающихся рядом с аэропортом 1221-й км :

1221-й км Свердловская область 60° 49' 13.7712" N, 60° 34' 34.0788" E
1221-й км Свердловская область 60° 49' 13.7712" N, 60° 34' 34.0788" E
Код аэродрома ИКАО
HDV0
Код аэродрома RU
ХДЖ0
Координаты
N60.82049° E060.57613°
Превышение над уровнем моря
76
Основная полоса
34/16
Курс магнитный
342,9/162,9
Длина основной ВПП
20
Ширина основной ВПП
20
Покрытие основной ВПП
Твёрдое
Освещение ВПП
Нет
Тип: 
Вертодром
Класс аэродрома: 
Принадлежность: 
ГА
Статус: 
Действующий
Сайт: 
E-mail аэродрома: 
Страна: 
Россия
Регион: 
Свердловская область
Город: 
Дополнительная информация: 
Владелец ПП: нет данных.

Найти трансфер

С помощью этой формы Вы можете найти трансфер из аэропорта 1221-й км в город, аэропорт или вокзал:

Карта места

Javascript is required to view this map.

Погода в аэропортах:

Авиационная погода в Кутаиси

Регион: 
Погода METAR: 
UGKO 131200Z 27008KT 9999 -RA BKN027 OVC038 09/08 Q1021 R07/29//50 NOSIG
Время наблюдения
2021-04-13T12:00:00Z
Температура C
9.0
Точка росы
8.0
Направление ветра
270
Скорость ветра (узлы)
8
Метео видимость
6.21
Явления погоды
-RA
Условия полета
MVFR

Авиационная погода в Мурманске

Регион: 
Погода METAR: 
ULMM 131200Z 09003MPS 9999 -SHSNRA BKN019CB 02/M03 Q1014 R13/090070 NOSIG RMK QFE754
Время наблюдения
2021-04-13T12:00:00Z
Температура C
2.0
Точка росы
-3.0
Направление ветра
90
Скорость ветра (узлы)
6
Метео видимость
6.21
Явления погоды
-SHSN -SHRA
Условия полета
MVFR
Аэропорт подробнее: 

Авиационная погода в Полярном

Регион: 
Погода METAR: 
UERP 131200Z 20002MPS 6000 -SHSN BKN017CB OVC100 M03/M04 Q0995 R17/492040 NOSIG RMK QFE702
Время наблюдения
2021-04-13T12:00:00Z
Температура C
-3.0
Точка росы
-4.0
Направление ветра
200
Скорость ветра (узлы)
4
Метео видимость
3.73
Явления погоды
-SHSN
Условия полета
MVFR
Аэропорт подробнее: 

Авиационная погода в Угольном

Регион: 
Погода METAR: 
UHMA 131200Z 36008MPS 4400 -SN DRSN SCT038 BKN047 M13/M14 Q1009 REBLSN RESN R01/////// NOSIG RMK TDZ R01/36008G09MPS END R01/36005G07MPS QFE753/1004
Время наблюдения
2021-04-13T12:00:00Z
Температура C
-13.0
Точка росы
-14.0
Направление ветра
360
Скорость ветра (узлы)
16
Метео видимость
2.73
Явления погоды
-SN DRSN SN
Условия полета
IFR
Аэропорт подробнее: